createdAt,value
2018-06-15T00:00:12.772Z,16.59
2018-06-15T00:02:52.813Z,16.64
2018-06-15T00:05:27.312Z,16.52
2018-06-15T00:08:01.921Z,16.40
2018-06-15T00:10:36.318Z,16.68
2018-06-15T00:13:10.926Z,16.47
2018-06-15T00:15:45.248Z,16.53
2018-06-15T00:18:19.931Z,16.58
2018-06-15T00:20:54.491Z,16.59
2018-06-15T00:23:29.260Z,16.72
2018-06-15T00:26:04.079Z,16.80
2018-06-15T00:28:38.989Z,16.61
2018-06-15T00:31:13.491Z,16.63
2018-06-15T00:33:47.873Z,16.67
2018-06-15T00:36:22.313Z,16.66
2018-06-15T00:38:56.716Z,16.63
2018-06-15T00:41:31.536Z,16.67
2018-06-15T00:44:06.276Z,16.63
2018-06-15T00:46:41.249Z,16.70
2018-06-15T00:49:15.770Z,16.64
2018-06-15T00:51:50.082Z,16.50
2018-06-15T00:54:24.632Z,16.65
2018-06-15T00:57:10.365Z,16.61
2018-06-15T00:59:45.079Z,16.79
2018-06-15T01:02:19.765Z,16.61
2018-06-15T01:04:54.213Z,16.64
2018-06-15T01:07:28.705Z,16.56
2018-06-15T01:10:03.269Z,16.36
2018-06-15T01:12:37.893Z,16.44
2018-06-15T01:15:12.449Z,16.50
2018-06-15T01:17:47.277Z,16.38
2018-06-15T01:20:21.724Z,16.36
2018-06-15T01:22:56.389Z,16.55
2018-06-15T01:25:31.096Z,16.39
2018-06-15T01:28:05.772Z,16.52
2018-06-15T01:30:40.320Z,16.53
2018-06-15T01:33:14.776Z,16.46
2018-06-15T01:35:49.274Z,16.60
2018-06-15T01:38:23.731Z,16.43
2018-06-15T01:40:58.328Z,16.50
2018-06-15T01:43:32.941Z,16.59
2018-06-15T01:49:15.276Z,16.64
2018-06-15T01:51:49.833Z,16.66
2018-06-15T01:54:24.353Z,16.77
2018-06-15T01:56:58.830Z,16.86
2018-06-15T01:59:33.377Z,16.63
2018-06-15T02:02:07.971Z,16.64
2018-06-15T02:04:42.384Z,16.57
2018-06-15T02:07:16.920Z,16.75
2018-06-15T02:09:51.836Z,16.59
2018-06-15T02:12:26.390Z,16.67
2018-06-15T02:15:00.768Z,16.61
2018-06-15T02:17:35.381Z,16.51
2018-06-15T02:20:09.712Z,16.68
2018-06-15T02:22:44.116Z,16.68
2018-06-15T02:25:18.544Z,16.51
2018-06-15T02:27:53.008Z,16.55
2018-06-15T02:30:27.824Z,16.70
2018-06-15T02:33:02.199Z,16.63
2018-06-15T02:35:39.802Z,16.60
2018-06-15T02:38:14.356Z,16.55
2018-06-15T02:40:48.971Z,16.56
2018-06-15T02:43:23.904Z,16.62
2018-06-15T02:45:58.323Z,16.37
2018-06-15T02:48:33.062Z,16.54
2018-06-15T02:51:07.839Z,16.62
2018-06-15T02:53:42.297Z,16.40
2018-06-15T02:56:16.892Z,16.41
2018-06-15T02:58:51.680Z,16.45
2018-06-15T03:01:26.173Z,16.67
2018-06-15T03:04:00.935Z,16.80
2018-06-15T03:06:35.484Z,16.64
2018-06-15T03:09:10.477Z,16.66
2018-06-15T03:11:44.964Z,16.83
2018-06-15T03:14:19.496Z,16.80
2018-06-15T03:16:53.972Z,16.82
2018-06-15T03:19:29.141Z,16.49
2018-06-15T03:22:03.524Z,16.38
2018-06-15T03:24:37.974Z,16.62
2018-06-15T03:27:12.516Z,16.78
2018-06-15T03:29:46.956Z,16.87
2018-06-15T03:32:21.532Z,16.71
2018-06-15T03:34:55.953Z,16.77
2018-06-15T03:37:30.453Z,16.65
2018-06-15T03:40:05.012Z,16.58
2018-06-15T03:42:39.701Z,16.58
2018-06-15T03:45:14.157Z,16.67
2018-06-15T03:47:48.900Z,16.74
2018-06-15T03:50:23.670Z,16.73
2018-06-15T03:52:58.198Z,16.71
2018-06-15T03:55:32.928Z,16.76
2018-06-15T03:58:07.797Z,16.64
2018-06-15T04:00:42.564Z,16.43
2018-06-15T04:03:17.347Z,16.69
2018-06-15T04:05:51.944Z,16.79
2018-06-15T04:08:26.822Z,16.84
2018-06-15T04:11:01.265Z,16.80
2018-06-15T04:13:36.012Z,16.53
2018-06-15T04:16:10.476Z,16.37
2018-06-15T04:18:44.999Z,16.41
2018-06-15T04:21:19.609Z,16.70
2018-06-15T04:23:54.172Z,16.81
2018-06-15T04:26:28.566Z,16.96
2018-06-15T04:29:02.987Z,16.84
2018-06-15T04:31:37.432Z,16.59
2018-06-15T04:34:12.041Z,16.43
2018-06-15T04:36:46.519Z,16.41
2018-06-15T04:39:21.281Z,16.46
2018-06-15T04:41:55.710Z,16.55
2018-06-15T04:44:30.350Z,16.52
2018-06-15T04:47:04.988Z,16.67
2018-06-15T04:49:40.276Z,16.72
2018-06-15T04:52:15.115Z,16.98
2018-06-15T04:54:50.349Z,17.12
2018-06-15T04:57:24.882Z,17.13
2018-06-15T05:00:00.317Z,16.82
2018-06-15T05:02:35.053Z,16.86
2018-06-15T05:05:09.753Z,16.86
2018-06-15T05:07:44.393Z,17.03
2018-06-15T05:10:19.116Z,17.12
2018-06-15T05:12:53.721Z,17.44
2018-06-15T05:15:28.373Z,17.55
2018-06-15T05:18:03.252Z,17.53
2018-06-15T05:20:37.640Z,17.45
2018-06-15T05:23:12.027Z,17.37
2018-06-15T05:25:46.725Z,17.19
2018-06-15T05:28:21.440Z,17.49
2018-06-15T05:30:56.168Z,17.66
2018-06-15T05:33:30.500Z,17.66
2018-06-15T05:36:05.041Z,17.55
2018-06-15T05:38:39.500Z,17.43
2018-06-15T05:41:13.974Z,17.54
2018-06-15T05:43:48.449Z,17.47
2018-06-15T05:46:23.066Z,17.33
2018-06-15T05:48:58.109Z,17.60
2018-06-15T05:51:32.861Z,17.89
2018-06-15T05:54:07.232Z,17.60
2018-06-15T05:56:41.584Z,17.87
2018-06-15T05:59:16.205Z,17.61
2018-06-15T06:01:50.703Z,17.52
2018-06-15T06:04:25.077Z,17.48
2018-06-15T06:06:59.724Z,17.68
2018-06-15T06:09:34.313Z,18.11
2018-06-15T06:12:08.840Z,18.08
2018-06-15T06:14:43.252Z,18.02
2018-06-15T06:17:17.981Z,18.25
2018-06-15T06:19:52.522Z,18.26
2018-06-15T06:22:27.220Z,18.02
2018-06-15T06:25:01.817Z,18.75
2018-06-15T06:27:36.445Z,19.31
2018-06-15T06:30:11.047Z,19.61
2018-06-15T06:32:45.649Z,19.92
2018-06-15T06:35:20.272Z,19.54
2018-06-15T06:37:55.116Z,19.70
2018-06-15T06:40:29.571Z,19.25
2018-06-15T06:43:04.073Z,18.66
2018-06-15T06:45:38.752Z,18.56
2018-06-15T06:48:13.592Z,19.31
2018-06-15T06:50:48.144Z,19.96
2018-06-15T06:53:22.704Z,18.96
2018-06-15T06:55:57.272Z,18.92
2018-06-15T06:58:31.780Z,19.24
2018-06-15T07:01:06.272Z,19.19
2018-06-15T07:03:40.791Z,19.59
2018-06-15T07:06:15.216Z,20.71
2018-06-15T07:08:49.721Z,21.08
2018-06-15T07:11:24.418Z,20.89
2018-06-15T07:13:58.848Z,21.08
2018-06-15T07:16:33.441Z,21.24
2018-06-15T07:19:07.796Z,20.20
2018-06-15T07:21:42.199Z,20.17
2018-06-15T07:24:16.732Z,20.34
2018-06-15T07:26:51.268Z,20.44
2018-06-15T07:29:25.660Z,21.59
2018-06-15T07:32:00.183Z,21.89
2018-06-15T07:34:34.616Z,20.98
2018-06-15T07:37:09.313Z,20.04
2018-06-15T07:39:43.861Z,19.88
2018-06-15T07:42:18.505Z,19.46
2018-06-15T07:44:53.189Z,20.60
2018-06-15T07:47:27.926Z,22.12
2018-06-15T07:50:02.541Z,22.72
2018-06-15T07:52:36.969Z,23.57
2018-06-15T07:55:11.452Z,24.18
2018-06-15T07:57:45.936Z,23.07
2018-06-15T08:00:20.495Z,20.98
2018-06-15T08:02:54.957Z,20.29
2018-06-15T08:05:29.564Z,20.85
2018-06-15T08:08:04.056Z,21.72
2018-06-15T08:10:38.592Z,21.66
2018-06-15T08:13:13.104Z,23.47
2018-06-15T08:15:47.723Z,25.47
2018-06-15T08:18:22.045Z,25.07
2018-06-15T08:20:56.617Z,22.80
2018-06-15T08:23:31.124Z,24.73
2018-06-15T08:26:05.805Z,25.43
2018-06-15T08:28:40.408Z,25.18
2018-06-15T08:31:15.061Z,26.02
2018-06-15T08:33:49.695Z,25.11
2018-06-15T08:36:24.049Z,26.54
2018-06-15T08:38:58.437Z,27.80
2018-06-15T08:41:32.965Z,28.25
2018-06-15T08:44:07.481Z,27.37
2018-06-15T08:46:42.033Z,25.88
2018-06-15T08:49:16.517Z,25.04
2018-06-15T08:51:50.918Z,25.42
2018-06-15T08:54:25.728Z,25.05
2018-06-15T08:57:05.139Z,26.11
2018-06-15T08:59:39.531Z,24.96
2018-06-15T09:02:13.886Z,25.90
2018-06-15T09:04:48.700Z,27.11
2018-06-15T09:07:23.419Z,25.23
2018-06-15T09:09:58.064Z,26.59
2018-06-15T09:12:32.571Z,28.26
2018-06-15T09:15:06.912Z,28.06
2018-06-15T09:17:41.309Z,26.02
2018-06-15T09:20:15.719Z,25.02
2018-06-15T09:22:50.428Z,24.95
2018-06-15T09:25:25.061Z,25.35
2018-06-15T09:27:59.567Z,24.03
2018-06-15T09:30:34.005Z,24.06
2018-06-15T09:33:08.370Z,24.07
2018-06-15T09:35:42.936Z,23.69
2018-06-15T09:38:17.486Z,24.29
2018-06-15T09:40:52.145Z,26.16
2018-06-15T09:43:26.840Z,23.27
2018-06-15T09:46:01.397Z,23.38
2018-06-15T09:48:35.904Z,23.76
2018-06-15T09:51:10.718Z,22.69
2018-06-15T09:53:45.336Z,22.78
2018-06-15T09:56:19.920Z,22.11
2018-06-15T09:58:56.038Z,22.10
2018-06-15T10:01:30.777Z,22.95
2018-06-15T10:04:05.201Z,21.88
2018-06-15T10:06:39.909Z,22.79
2018-06-15T10:09:14.384Z,22.47
2018-06-15T10:11:48.878Z,22.48
2018-06-15T10:14:23.254Z,22.63
2018-06-15T10:16:57.773Z,21.79
2018-06-15T10:19:32.545Z,21.75
2018-06-15T10:22:07.118Z,21.50
2018-06-15T10:24:41.479Z,21.41
2018-06-15T10:27:15.920Z,21.05
2018-06-15T10:29:50.383Z,21.13
2018-06-15T10:32:24.773Z,21.98
2018-06-15T10:34:59.236Z,21.85
2018-06-15T10:37:33.692Z,22.46
2018-06-15T10:40:08.148Z,22.56
2018-06-15T10:42:42.903Z,22.53
2018-06-15T10:45:17.456Z,22.36
2018-06-15T10:47:52.084Z,22.07
2018-06-15T10:50:26.724Z,22.15
2018-06-15T10:53:01.200Z,22.35
2018-06-15T10:55:35.769Z,22.28
2018-06-15T10:58:10.252Z,21.95
2018-06-15T11:00:44.716Z,21.87
2018-06-15T11:03:19.085Z,22.16
2018-06-15T11:05:53.932Z,24.51
2018-06-15T11:08:28.768Z,28.09
2018-06-15T11:11:03.428Z,26.45
2018-06-15T11:13:38.009Z,23.60
2018-06-15T11:16:12.941Z,23.65
2018-06-15T11:18:47.899Z,23.66
2018-06-15T11:21:25.424Z,25.28
2018-06-15T11:24:00.092Z,28.36
2018-06-15T11:26:44.101Z,30.07
2018-06-15T11:29:18.481Z,28.51
2018-06-15T11:31:53.063Z,27.42
2018-06-15T11:34:27.952Z,26.93
2018-06-15T11:37:02.513Z,29.26
2018-06-15T11:39:36.896Z,31.62
2018-06-15T11:42:11.496Z,29.11
2018-06-15T11:44:45.832Z,29.11
2018-06-15T11:47:20.564Z,28.42
2018-06-15T11:49:55.150Z,29.67
2018-06-15T11:52:29.669Z,29.45
2018-06-15T11:55:04.233Z,28.55
2018-06-15T11:57:38.649Z,27.59
2018-06-15T12:00:13.365Z,27.70
2018-06-15T12:02:48.020Z,25.74
2018-06-15T12:05:22.496Z,26.25
2018-06-15T12:07:56.926Z,25.72
2018-06-15T12:10:31.292Z,26.07
2018-06-15T12:13:05.640Z,26.38
2018-06-15T12:15:40.105Z,27.17
2018-06-15T12:18:14.652Z,27.05
2018-06-15T12:20:49.092Z,26.54
2018-06-15T12:23:23.548Z,26.07
2018-06-15T12:25:58.298Z,24.83
2018-06-15T12:28:32.874Z,24.07
2018-06-15T12:31:07.877Z,24.04
2018-06-15T12:33:42.400Z,23.89
2018-06-15T12:36:16.778Z,24.85
2018-06-15T12:38:51.244Z,25.41
2018-06-15T12:41:25.781Z,25.44
2018-06-15T12:44:00.173Z,24.63
2018-06-15T12:46:34.537Z,24.93
2018-06-15T12:49:09.006Z,24.56
2018-06-15T12:51:43.557Z,25.11
2018-06-15T12:54:17.954Z,24.72
2018-06-15T12:57:15.099Z,24.35
2018-06-15T12:59:49.744Z,24.50
2018-06-15T13:02:24.308Z,25.00
2018-06-15T13:04:59.048Z,25.16
2018-06-15T13:07:33.893Z,25.21
2018-06-15T13:10:08.405Z,25.67
2018-06-15T13:12:43.265Z,25.28
2018-06-15T13:15:17.721Z,25.74
2018-06-15T13:17:52.179Z,24.50
2018-06-15T13:20:26.784Z,24.54
2018-06-15T13:23:01.245Z,24.63
2018-06-15T13:25:35.608Z,25.01
2018-06-15T13:28:09.901Z,24.32
2018-06-15T13:30:44.511Z,24.96
2018-06-15T13:33:18.865Z,24.98
2018-06-15T13:35:53.449Z,24.97
2018-06-15T13:38:28.188Z,25.48
2018-06-15T13:41:02.848Z,25.77
2018-06-15T13:43:37.269Z,25.55
2018-06-15T13:46:12.149Z,26.33
2018-06-15T13:48:46.628Z,26.47
2018-06-15T13:51:21.036Z,26.29
2018-06-15T13:53:55.480Z,25.56
2018-06-15T13:56:30.093Z,26.07
2018-06-15T13:59:04.401Z,26.09
2018-06-15T14:01:38.959Z,26.46
2018-06-15T14:04:13.803Z,26.32
2018-06-15T14:06:48.399Z,26.08
2018-06-15T14:09:22.867Z,27.01
2018-06-15T14:11:57.500Z,26.50
2018-06-15T14:14:32.056Z,25.35
2018-06-15T14:17:06.524Z,24.69
2018-06-15T14:19:40.852Z,24.35
2018-06-15T14:22:15.309Z,24.65
2018-06-15T14:24:49.760Z,24.18
2018-06-15T14:27:24.410Z,24.40
2018-06-15T14:29:58.927Z,24.44
2018-06-15T14:32:33.652Z,24.66
2018-06-15T14:35:08.265Z,24.47
2018-06-15T14:37:43.033Z,24.12
2018-06-15T14:40:17.545Z,24.55
2018-06-15T14:42:52.172Z,24.37
2018-06-15T14:45:26.645Z,24.68
2018-06-15T14:48:01.333Z,26.00
2018-06-15T14:50:35.908Z,26.85
2018-06-15T14:53:10.221Z,28.95
2018-06-15T14:55:44.639Z,28.81
2018-06-15T14:58:19.061Z,28.09
2018-06-15T15:00:53.592Z,27.68
2018-06-15T15:03:27.945Z,28.08
2018-06-15T15:06:02.432Z,29.02
2018-06-15T15:08:37.004Z,29.04
2018-06-15T15:11:11.440Z,29.20
2018-06-15T15:13:46.050Z,28.82
2018-06-15T15:16:20.968Z,27.09
2018-06-15T15:18:55.637Z,26.28
2018-06-15T15:21:30.081Z,25.54
2018-06-15T15:24:04.480Z,25.80
2018-06-15T15:26:39.032Z,25.55
2018-06-15T15:29:13.722Z,26.08
2018-06-15T15:31:48.209Z,26.01
2018-06-15T15:34:22.668Z,25.77
2018-06-15T15:36:57.148Z,25.55
2018-06-15T15:39:31.589Z,25.32
2018-06-15T15:42:06.241Z,25.24
2018-06-15T15:44:40.742Z,24.58
2018-06-15T15:47:15.457Z,24.59
2018-06-15T15:49:49.829Z,24.72
2018-06-15T15:52:24.388Z,24.41
2018-06-15T15:54:58.829Z,24.39
2018-06-15T15:57:33.348Z,24.55
2018-06-15T16:00:07.832Z,24.35
2018-06-15T16:02:42.157Z,24.14
2018-06-15T16:05:16.649Z,24.27
2018-06-15T16:07:51.169Z,24.52
2018-06-15T16:10:25.759Z,24.49
2018-06-15T16:13:00.224Z,24.69
2018-06-15T16:15:34.661Z,24.88
2018-06-15T16:18:09.240Z,24.92
2018-06-15T16:20:43.642Z,24.77
2018-06-15T16:23:18.345Z,24.68
2018-06-15T16:25:52.970Z,24.59
2018-06-15T16:28:27.537Z,24.47
2018-06-15T16:31:02.292Z,24.85
2018-06-15T16:33:36.712Z,25.14
2018-06-15T16:36:11.259Z,24.62
2018-06-15T16:38:45.625Z,24.65
2018-06-15T16:41:19.972Z,24.68
2018-06-15T16:43:54.504Z,24.49
2018-06-15T16:46:28.949Z,24.64
2018-06-15T16:49:03.689Z,24.60
2018-06-15T16:51:38.504Z,24.66
2018-06-15T16:54:13.049Z,23.88
2018-06-15T16:56:47.997Z,24.30
2018-06-15T16:59:22.569Z,24.04
2018-06-15T17:01:56.945Z,23.72
2018-06-15T17:04:31.254Z,23.74
2018-06-15T17:07:05.908Z,24.12
2018-06-15T17:09:40.427Z,24.27
2018-06-15T17:12:14.809Z,24.12
2018-06-15T17:14:49.618Z,24.37
2018-06-15T17:17:24.064Z,24.66
2018-06-15T17:19:58.837Z,24.68
2018-06-15T17:22:33.393Z,24.75
2018-06-15T17:25:07.873Z,24.81
2018-06-15T17:27:42.364Z,24.61
2018-06-15T17:30:16.761Z,24.41
2018-06-15T17:32:51.387Z,24.55
2018-06-15T17:35:26.176Z,24.30
2018-06-15T17:38:00.783Z,24.69
2018-06-15T17:40:35.217Z,24.97
2018-06-15T17:43:10.049Z,25.07
2018-06-15T17:45:44.425Z,25.21
2018-06-15T17:48:19.004Z,25.17
2018-06-15T17:50:53.532Z,24.96
2018-06-15T17:53:28.105Z,24.76
2018-06-15T17:56:02.636Z,24.41
2018-06-15T17:58:37.141Z,24.27
2018-06-15T18:01:11.833Z,24.37
2018-06-15T18:03:46.364Z,24.22
2018-06-15T18:06:20.889Z,24.32
2018-06-15T18:08:55.546Z,24.07
2018-06-15T18:11:30.036Z,24.01
2018-06-15T18:14:04.468Z,23.86
2018-06-15T18:16:38.897Z,23.56
2018-06-15T18:19:13.429Z,23.45
2018-06-15T18:21:48.128Z,23.32
2018-06-15T18:24:22.766Z,23.04
2018-06-15T18:26:57.297Z,22.69
2018-06-15T18:29:31.831Z,22.60
2018-06-15T18:32:06.919Z,22.43
2018-06-15T18:34:41.637Z,22.34
2018-06-15T18:37:16.160Z,22.33
2018-06-15T18:39:50.760Z,22.21
2018-06-15T18:42:25.362Z,22.22
2018-06-15T18:44:59.841Z,22.22
2018-06-15T18:47:34.508Z,22.12
2018-06-15T18:50:08.997Z,22.07
2018-06-15T18:52:43.572Z,21.83
2018-06-15T18:55:18.186Z,21.68
2018-06-15T18:57:59.421Z,21.56
2018-06-15T19:00:34.061Z,21.65
2018-06-15T19:03:08.439Z,21.61
2018-06-15T19:05:43.264Z,21.68
2018-06-15T19:08:17.596Z,21.54
2018-06-15T19:10:52.360Z,21.28
2018-06-15T19:13:26.724Z,21.20
2018-06-15T19:16:01.389Z,21.16
2018-06-15T19:18:35.761Z,21.12
2018-06-15T19:21:10.486Z,21.13
2018-06-15T19:23:45.401Z,21.06
2018-06-15T19:26:20.452Z,20.91
2018-06-15T19:28:54.946Z,20.67
2018-06-15T19:31:29.420Z,20.68
2018-06-15T19:34:03.945Z,20.52
2018-06-15T19:36:38.509Z,20.42
2018-06-15T19:39:12.974Z,20.33
2018-06-15T19:41:47.404Z,20.26
2018-06-15T19:44:21.908Z,20.28
2018-06-15T19:46:56.536Z,20.25
2018-06-15T19:49:31.225Z,20.20
2018-06-15T19:52:06.288Z,20.20
2018-06-15T19:54:40.775Z,20.14
2018-06-15T19:57:15.540Z,20.30
2018-06-15T19:59:50.124Z,20.33
2018-06-15T20:02:24.524Z,20.33
2018-06-15T20:04:58.998Z,20.26
2018-06-15T20:07:33.533Z,20.12
2018-06-15T20:10:08.090Z,20.06
2018-06-15T20:12:42.537Z,20.03
2018-06-15T20:15:17.112Z,19.95
2018-06-15T20:17:51.772Z,19.73
2018-06-15T20:20:26.185Z,19.66
2018-06-15T20:23:00.712Z,19.61
2018-06-15T20:25:35.133Z,19.50
2018-06-15T20:28:09.772Z,19.38
2018-06-15T20:30:44.398Z,19.36
2018-06-15T20:33:18.952Z,19.33
2018-06-15T20:35:53.495Z,19.33
2018-06-15T20:38:27.927Z,19.29
2018-06-15T20:41:02.270Z,19.31
2018-06-15T20:43:36.683Z,19.26
2018-06-15T20:46:11.037Z,19.21
2018-06-15T20:48:45.764Z,19.28
2018-06-15T20:51:20.166Z,19.33
2018-06-15T20:53:54.564Z,19.33
2018-06-15T20:56:29.389Z,19.43
2018-06-15T20:59:03.908Z,19.55
2018-06-15T21:01:38.321Z,19.57
2018-06-15T21:04:13.144Z,19.60
2018-06-15T21:06:47.732Z,19.67
2018-06-15T21:09:22.113Z,19.83
2018-06-15T21:11:56.732Z,19.91
2018-06-15T21:14:31.262Z,19.90
2018-06-15T21:17:06.028Z,19.93
2018-06-15T21:19:40.761Z,20.02
2018-06-15T21:22:15.869Z,20.06
2018-06-15T21:24:50.761Z,20.00
2018-06-15T21:27:25.180Z,20.18
2018-06-15T21:29:59.972Z,20.41
2018-06-15T21:32:34.657Z,20.46
2018-06-15T21:35:09.228Z,20.52
2018-06-15T21:37:43.735Z,20.48
2018-06-15T21:40:18.327Z,20.46
2018-06-15T21:42:53.053Z,20.53
2018-06-15T21:45:27.396Z,20.52
2018-06-15T21:48:01.737Z,20.52
2018-06-15T21:50:36.121Z,20.55
2018-06-15T21:53:10.574Z,20.57
2018-06-15T21:55:45.084Z,20.60
2018-06-15T21:58:19.717Z,20.56
2018-06-15T22:00:54.204Z,20.48
2018-06-15T22:03:28.526Z,20.39
2018-06-15T22:06:02.893Z,20.33
2018-06-15T22:08:37.855Z,20.51
2018-06-15T22:11:12.603Z,20.35
2018-06-15T22:13:47.065Z,20.11
2018-06-15T22:16:21.522Z,20.09
2018-06-15T22:18:56.016Z,19.94
2018-06-15T22:21:30.538Z,19.84
2018-06-15T22:24:05.007Z,20.04
2018-06-15T22:26:39.369Z,20.25
2018-06-15T22:29:14.732Z,20.34
2018-06-15T22:31:49.292Z,20.40
2018-06-15T22:34:23.751Z,20.34
2018-06-15T22:36:58.180Z,20.25
2018-06-15T22:39:32.677Z,20.25
2018-06-15T22:42:07.061Z,20.22
2018-06-15T22:44:44.272Z,20.24
2018-06-15T22:47:18.696Z,20.22
2018-06-15T22:49:53.255Z,20.12
2018-06-15T22:52:27.672Z,20.08
2018-06-15T22:55:02.305Z,20.02
2018-06-15T22:57:36.845Z,19.99
2018-06-15T23:00:12.124Z,20.12
2018-06-15T23:02:46.911Z,20.15
2018-06-15T23:05:21.533Z,20.08
2018-06-15T23:07:55.884Z,20.08
2018-06-15T23:10:30.289Z,19.96
2018-06-15T23:13:05.147Z,19.98
2018-06-15T23:15:39.592Z,19.91
2018-06-15T23:18:14.004Z,19.89
2018-06-15T23:20:48.837Z,19.78
2018-06-15T23:23:23.328Z,19.75
2018-06-15T23:25:57.678Z,19.68
2018-06-15T23:28:32.172Z,19.74
2018-06-15T23:31:06.564Z,19.75
2018-06-15T23:33:41.095Z,19.75
2018-06-15T23:36:15.471Z,19.75
2018-06-15T23:38:49.880Z,19.66
2018-06-15T23:41:24.718Z,19.58
2018-06-15T23:43:59.284Z,19.56
2018-06-15T23:46:33.728Z,19.45
2018-06-15T23:49:08.267Z,19.41
2018-06-15T23:51:42.632Z,19.23
2018-06-15T23:54:17.145Z,19.08
2018-06-15T23:56:51.493Z,19.11
2018-06-15T23:59:25.872Z,19.21
